createdAt,value
2023-01-25T00:00:01.277Z,79
2023-01-25T00:00:31.837Z,84
2023-01-25T00:01:04.805Z,73
2023-01-25T00:01:35.647Z,76
2023-01-25T00:01:58.510Z,61
2023-01-25T00:02:21.538Z,58
2023-01-25T00:02:56.070Z,75
2023-01-25T00:03:28.038Z,80
2023-01-25T00:03:59.693Z,68
2023-01-25T00:04:33.493Z,57
2023-01-25T00:05:03.981Z,57
2023-01-25T00:05:35.651Z,63
2023-01-25T00:05:58.131Z,64
2023-01-25T00:06:20.450Z,61
2023-01-25T00:06:56.091Z,63
2023-01-25T00:07:28.311Z,62
2023-01-25T00:07:59.794Z,69
2023-01-25T00:08:33.971Z,68
2023-01-25T00:09:07.428Z,68
2023-01-25T00:09:35.683Z,100
2023-01-25T00:09:58.386Z,96
2023-01-25T00:10:20.890Z,78
2023-01-25T00:10:58.248Z,81
2023-01-25T00:11:27.949Z,73
2023-01-25T00:11:59.791Z,97
2023-01-25T00:12:32.007Z,117
2023-01-25T00:13:03.659Z,68
2023-01-25T00:13:35.779Z,118
2023-01-25T00:13:58.482Z,96
2023-01-25T00:14:20.752Z,127
2023-01-25T00:14:56.875Z,108
2023-01-25T00:15:29.727Z,127
2023-01-25T00:16:02.631Z,120
2023-01-25T00:16:32.115Z,110
2023-01-25T00:17:03.790Z,102
2023-01-25T00:17:35.641Z,90
2023-01-25T00:17:58.291Z,85
2023-01-25T00:18:21.066Z,77
2023-01-25T00:18:55.619Z,77
2023-01-25T00:19:27.663Z,82
2023-01-25T00:20:00.813Z,85
2023-01-25T00:20:34.012Z,86
2023-01-25T00:21:05.123Z,76
2023-01-25T00:21:36.247Z,83
2023-01-25T00:21:59.112Z,85
2023-01-25T00:22:21.608Z,56
2023-01-25T00:22:58.954Z,83
2023-01-25T00:23:27.949Z,89
2023-01-25T00:24:02.683Z,82
2023-01-25T00:24:47.883Z,85
2023-01-25T00:25:12.397Z,90
2023-01-25T00:25:35.754Z,88
2023-01-25T00:26:04.180Z,81
2023-01-25T00:26:39.696Z,85
2023-01-25T00:27:02.870Z,81
2023-01-25T00:27:24.688Z,76
2023-01-25T00:27:59.742Z,78
2023-01-25T00:28:33.407Z,75
2023-01-25T00:29:05.157Z,82
2023-01-25T00:29:35.673Z,71
2023-01-25T00:29:59.197Z,74
2023-01-25T00:30:23.138Z,82
2023-01-25T00:30:55.706Z,77
2023-01-25T00:31:27.807Z,101
2023-01-25T00:31:59.995Z,102
2023-01-25T00:32:33.930Z,96
2023-01-25T00:33:03.598Z,67
2023-01-25T00:33:35.619Z,85
2023-01-25T00:33:58.484Z,70
2023-01-25T00:34:20.978Z,80
2023-01-25T00:34:55.603Z,77
2023-01-25T00:35:27.598Z,91
2023-01-25T00:35:59.500Z,73
2023-01-25T00:36:31.861Z,73
2023-01-25T00:37:03.809Z,85
2023-01-25T00:37:35.648Z,87
2023-01-25T00:37:58.534Z,87
2023-01-25T00:38:20.990Z,82
2023-01-25T00:38:55.734Z,81
2023-01-25T00:39:28.107Z,83
2023-01-25T00:39:59.922Z,90
2023-01-25T00:40:31.636Z,95
2023-01-25T00:41:03.642Z,111
2023-01-25T00:41:35.535Z,115
2023-01-25T00:41:58.202Z,113
2023-01-25T00:42:20.600Z,87
2023-01-25T00:42:55.571Z,91
2023-01-25T00:43:27.684Z,74
2023-01-25T00:44:02.267Z,91
2023-01-25T00:44:31.589Z,41
2023-01-25T00:45:03.740Z,87
2023-01-25T00:45:35.875Z,89
2023-01-25T00:45:59.104Z,80
2023-01-25T00:46:21.307Z,69
2023-01-25T00:46:55.592Z,81
2023-01-25T00:47:27.636Z,77
2023-01-25T00:48:00.096Z,75
2023-01-25T00:48:31.636Z,80
2023-01-25T00:49:03.787Z,96
2023-01-25T00:49:35.804Z,60
2023-01-25T00:49:58.239Z,49
2023-01-25T00:50:21.141Z,27
2023-01-25T00:50:55.503Z,18
2023-01-25T00:51:27.518Z,18
2023-01-25T00:51:59.547Z,25
2023-01-25T00:52:31.633Z,33
2023-01-25T00:53:03.532Z,54
2023-01-25T00:53:36.152Z,78
2023-01-25T00:53:58.421Z,90
2023-01-25T00:54:20.816Z,100
2023-01-25T00:54:55.612Z,73
2023-01-25T00:55:27.554Z,94
2023-01-25T00:55:59.674Z,102
2023-01-25T00:56:33.005Z,106
2023-01-25T00:57:03.712Z,134
2023-01-25T00:57:36.560Z,108
2023-01-25T00:57:58.588Z,75
2023-01-25T00:58:21.392Z,80
2023-01-25T00:58:55.521Z,78
2023-01-25T00:59:27.765Z,66
2023-01-25T00:59:59.574Z,68
2023-01-25T01:00:31.697Z,67
2023-01-25T01:01:03.699Z,94
2023-01-25T01:01:32.714Z,79
2023-01-25T01:02:04.329Z,98
2023-01-25T01:02:39.906Z,99
2023-01-25T01:03:02.215Z,108
2023-01-25T01:03:24.520Z,84
2023-01-25T01:04:00.146Z,127
2023-01-25T01:04:31.725Z,114
2023-01-25T01:05:03.592Z,95
2023-01-25T01:05:38.199Z,108
2023-01-25T01:05:58.340Z,131
2023-01-25T01:06:20.722Z,136
2023-01-25T01:06:55.672Z,137
2023-01-25T01:07:27.779Z,124
2023-01-25T01:07:59.628Z,94
2023-01-25T01:08:31.615Z,118
2023-01-25T01:09:03.688Z,101
2023-01-25T01:09:35.613Z,108
2023-01-25T01:09:58.723Z,128
2023-01-25T01:10:24.565Z,92
2023-01-25T01:10:55.632Z,118
2023-01-25T01:11:27.602Z,111
2023-01-25T01:12:01.357Z,99
2023-01-25T01:12:31.486Z,85
2023-01-25T01:13:03.882Z,72
2023-01-25T01:13:35.587Z,78
2023-01-25T01:13:58.317Z,88
2023-01-25T01:14:20.714Z,90
2023-01-25T01:14:55.653Z,76
2023-01-25T01:15:27.760Z,93
2023-01-25T01:16:00.004Z,82
2023-01-25T01:16:31.700Z,76
2023-01-25T01:17:03.638Z,85
2023-01-25T01:17:36.045Z,84
2023-01-25T01:17:59.020Z,62
2023-01-25T01:18:21.344Z,112
2023-01-25T01:18:55.496Z,111
2023-01-25T01:19:27.625Z,98
2023-01-25T01:19:59.527Z,89
2023-01-25T01:20:31.742Z,99
2023-01-25T01:21:05.036Z,100
2023-01-25T01:21:35.674Z,93
2023-01-25T01:21:58.820Z,86
2023-01-25T01:22:21.220Z,79
2023-01-25T01:22:55.757Z,76
2023-01-25T01:23:27.647Z,71
2023-01-25T01:23:59.723Z,62
2023-01-25T01:24:31.675Z,17
2023-01-25T01:25:03.558Z,18
2023-01-25T01:25:35.487Z,21
2023-01-25T01:25:58.379Z,22
2023-01-25T01:26:22.410Z,44
2023-01-25T01:26:55.713Z,57
2023-01-25T01:27:27.600Z,66
2023-01-25T01:27:59.568Z,58
2023-01-25T01:28:31.659Z,67
2023-01-25T01:29:05.156Z,60
2023-01-25T01:29:36.041Z,62
2023-01-25T01:29:58.361Z,66
2023-01-25T01:30:23.231Z,62
2023-01-25T01:30:55.508Z,38
2023-01-25T01:31:27.692Z,69
2023-01-25T01:31:59.875Z,77
2023-01-25T01:32:31.919Z,82
2023-01-25T01:33:04.132Z,9
2023-01-25T01:33:36.233Z,80
2023-01-25T01:33:58.676Z,73
2023-01-25T01:34:21.403Z,81
2023-01-25T01:34:58.096Z,69
2023-01-25T01:35:27.700Z,72
2023-01-25T01:35:59.909Z,70
2023-01-25T01:36:31.584Z,57
2023-01-25T01:37:03.560Z,61
2023-01-25T01:37:35.951Z,85
2023-01-25T01:37:58.711Z,77
2023-01-25T01:38:20.948Z,60
2023-01-25T01:38:55.655Z,69
2023-01-25T01:39:27.845Z,74
2023-01-25T01:39:59.562Z,82
2023-01-25T01:40:31.680Z,89
2023-01-25T01:41:03.620Z,72
2023-01-25T01:41:35.886Z,79
2023-01-25T01:41:59.847Z,78
2023-01-25T01:42:22.133Z,77
2023-01-25T01:42:55.666Z,86
2023-01-25T01:43:27.512Z,96
2023-01-25T01:44:00.275Z,83
2023-01-25T01:44:33.008Z,127
2023-01-25T01:45:03.800Z,114
2023-01-25T01:45:35.656Z,125
2023-01-25T01:45:58.573Z,107
2023-01-25T01:46:20.784Z,74
2023-01-25T01:46:55.869Z,86
2023-01-25T01:47:27.884Z,66
2023-01-25T01:48:03.091Z,71
2023-01-25T01:48:31.564Z,49
2023-01-25T01:49:03.603Z,73
2023-01-25T01:49:37.137Z,43
2023-01-25T01:49:58.975Z,59
2023-01-25T01:50:21.542Z,82
2023-01-25T01:50:55.579Z,49
2023-01-25T01:51:27.683Z,39
2023-01-25T01:51:59.776Z,87
2023-01-25T01:52:31.895Z,86
2023-01-25T01:53:03.754Z,58
2023-01-25T01:53:35.627Z,90
2023-01-25T01:53:58.813Z,47
2023-01-25T01:54:21.264Z,67
2023-01-25T01:54:55.625Z,58
2023-01-25T01:55:27.620Z,69
2023-01-25T01:55:59.610Z,65
2023-01-25T01:56:33.078Z,61
2023-01-25T01:57:03.525Z,101
2023-01-25T01:57:35.612Z,73
2023-01-25T01:57:58.395Z,76
2023-01-25T01:58:22.393Z,68
2023-01-25T01:58:55.614Z,18
2023-01-25T01:59:27.892Z,34
2023-01-25T01:59:59.605Z,70
2023-01-25T02:00:34.151Z,76
2023-01-25T02:01:03.769Z,91
2023-01-25T02:01:35.699Z,86
2023-01-25T02:01:58.292Z,81
2023-01-25T02:02:20.636Z,87
2023-01-25T02:02:55.772Z,110
2023-01-25T02:03:27.565Z,71
2023-01-25T02:03:59.719Z,83
2023-01-25T02:04:31.683Z,103
2023-01-25T02:05:03.972Z,124
2023-01-25T02:05:35.465Z,121
2023-01-25T02:05:58.399Z,116
2023-01-25T02:06:20.682Z,129
2023-01-25T02:06:55.754Z,113
2023-01-25T02:07:27.634Z,113
2023-01-25T02:07:59.662Z,105
2023-01-25T02:08:33.002Z,83
2023-01-25T02:09:04.240Z,77
2023-01-25T02:09:37.256Z,94
2023-01-25T02:09:59.857Z,122
2023-01-25T02:10:23.058Z,144
2023-01-25T02:10:56.560Z,122
2023-01-25T02:11:27.961Z,124
2023-01-25T02:12:01.345Z,146
2023-01-25T02:12:31.877Z,126
2023-01-25T02:13:03.830Z,120
2023-01-25T02:17:15.905Z,84
2023-01-25T02:17:19.452Z,84
2023-01-25T02:17:47.434Z,91
2023-01-25T02:18:08.648Z,86
2023-01-25T02:18:39.552Z,93
2023-01-25T02:19:02.117Z,81
2023-01-25T02:19:24.511Z,86
2023-01-25T02:19:59.801Z,93
2023-01-25T02:20:31.743Z,82
2023-01-25T02:21:03.645Z,80
2023-01-25T02:21:35.670Z,75
2023-01-25T02:21:58.624Z,114
2023-01-25T02:22:20.967Z,77
2023-01-25T02:22:55.616Z,84
2023-01-25T02:23:27.718Z,91
2023-01-25T02:23:59.581Z,93
2023-01-25T02:24:31.658Z,103
2023-01-25T02:25:03.558Z,81
2023-01-25T02:25:35.690Z,118
2023-01-25T02:25:58.420Z,118
2023-01-25T02:26:23.242Z,104
2023-01-25T02:26:55.533Z,110
2023-01-25T02:27:28.376Z,85
2023-01-25T02:27:59.672Z,96
2023-01-25T02:28:32.096Z,101
2023-01-25T02:29:05.176Z,104
2023-01-25T02:29:35.509Z,105
2023-01-25T02:29:57.947Z,112
2023-01-25T02:30:22.300Z,77
2023-01-25T02:30:55.665Z,75
2023-01-25T02:31:27.631Z,78
2023-01-25T02:31:59.782Z,94
2023-01-25T02:32:31.440Z,74
2023-01-25T02:33:03.774Z,72
2023-01-25T02:33:35.534Z,80
2023-01-25T02:33:58.898Z,82
2023-01-25T02:34:21.305Z,74
2023-01-25T02:34:55.726Z,71
2023-01-25T02:35:27.618Z,127
2023-01-25T02:35:59.616Z,115
2023-01-25T02:36:32.045Z,114
2023-01-25T02:37:03.525Z,92
2023-01-25T02:37:37.121Z,123
2023-01-25T02:37:58.494Z,103
2023-01-25T02:38:20.826Z,114
2023-01-25T02:38:55.647Z,111
2023-01-25T02:39:27.642Z,114
2023-01-25T02:39:59.612Z,98
2023-01-25T02:40:31.974Z,122
2023-01-25T02:41:03.525Z,127
2023-01-25T02:41:32.607Z,123
2023-01-25T02:42:04.183Z,131
2023-01-25T02:42:39.782Z,128
2023-01-25T02:43:03.356Z,87
2023-01-25T02:43:25.593Z,93
2023-01-25T02:43:59.965Z,97
2023-01-25T02:44:33.555Z,90
2023-01-25T02:45:03.853Z,122
2023-01-25T02:45:35.648Z,90
2023-01-25T02:45:58.544Z,108
2023-01-25T02:46:21.131Z,96
2023-01-25T02:46:55.559Z,98
2023-01-25T02:47:28.107Z,104
2023-01-25T02:47:59.770Z,80
2023-01-25T02:48:31.540Z,86
2023-01-25T02:49:03.918Z,117
2023-01-25T02:49:35.568Z,115
2023-01-25T02:49:59.107Z,123
2023-01-25T02:50:21.404Z,106
2023-01-25T02:50:55.662Z,112
2023-01-25T02:51:27.663Z,109
2023-01-25T02:51:59.666Z,118
2023-01-25T02:52:31.501Z,110
2023-01-25T02:53:03.667Z,104
2023-01-25T02:53:35.516Z,112
2023-01-25T02:53:58.338Z,111
2023-01-25T02:54:20.582Z,103
2023-01-25T02:54:55.874Z,116
2023-01-25T02:55:27.564Z,122
2023-01-25T02:55:59.795Z,110
2023-01-25T02:56:33.098Z,73
2023-01-25T02:57:03.608Z,93
2023-01-25T02:57:35.658Z,94
2023-01-25T02:57:58.321Z,85
2023-01-25T02:58:20.687Z,75
2023-01-25T02:58:55.741Z,24
2023-01-25T02:59:27.826Z,18
2023-01-25T03:00:00.211Z,7
2023-01-25T03:00:32.373Z,25
2023-01-25T03:01:03.670Z,74
2023-01-25T03:01:35.807Z,79
2023-01-25T03:02:02.052Z,84
2023-01-25T03:02:20.884Z,93
2023-01-25T03:02:55.814Z,99
2023-01-25T03:03:27.524Z,76
2023-01-25T03:03:59.599Z,77
2023-01-25T03:04:31.609Z,70
2023-01-25T03:05:03.889Z,88
2023-01-25T03:05:35.649Z,94
2023-01-25T03:05:58.709Z,114
2023-01-25T03:06:21.011Z,106
2023-01-25T03:06:55.907Z,102
2023-01-25T03:07:27.664Z,116
2023-01-25T03:07:59.657Z,117
2023-01-25T03:08:31.794Z,99
2023-01-25T03:09:03.717Z,114
2023-01-25T03:09:35.507Z,109
2023-01-25T03:09:58.657Z,117
2023-01-25T03:10:20.919Z,105
2023-01-25T03:10:56.077Z,117
2023-01-25T03:11:21.522Z,106
2023-01-25T03:12:00.300Z,112
2023-01-25T03:12:31.631Z,97
2023-01-25T03:13:03.820Z,70
2023-01-25T03:13:35.647Z,60
2023-01-25T03:13:58.632Z,72
2023-01-25T03:14:20.826Z,83
2023-01-25T03:14:55.719Z,100
2023-01-25T03:15:28.071Z,116
2023-01-25T03:16:01.860Z,82
2023-01-25T03:16:32.587Z,108
2023-01-25T03:17:03.666Z,96
2023-01-25T03:17:36.491Z,99
2023-01-25T03:17:59.151Z,105
2023-01-25T03:18:28.821Z,73
2023-01-25T03:18:50.610Z,69
2023-01-25T03:19:27.750Z,78
2023-01-25T03:19:59.656Z,73
2023-01-25T03:20:31.738Z,65
2023-01-25T03:21:03.756Z,64
2023-01-25T03:21:35.558Z,32
2023-01-25T03:21:58.288Z,18
2023-01-25T03:22:20.658Z,16
2023-01-25T03:22:59.226Z,13
2023-01-25T03:23:27.725Z,9
2023-01-25T03:24:00.023Z,12
2023-01-25T03:24:31.486Z,17
2023-01-25T03:25:03.612Z,19
2023-01-25T03:25:38.122Z,21
2023-01-25T03:26:03.032Z,23
2023-01-25T03:26:39.829Z,36
2023-01-25T03:27:02.896Z,47
2023-01-25T03:27:25.357Z,50
2023-01-25T03:27:59.501Z,52
2023-01-25T03:28:31.565Z,59
2023-01-25T03:29:05.996Z,58
2023-01-25T03:29:35.856Z,56
2023-01-25T03:29:58.619Z,56
2023-01-25T03:30:20.905Z,51
2023-01-25T03:30:59.029Z,49
2023-01-25T03:31:28.042Z,51
2023-01-25T03:32:00.150Z,51
2023-01-25T03:32:31.660Z,66
2023-01-25T03:33:03.545Z,91
2023-01-25T03:33:35.621Z,80
2023-01-25T03:34:01.592Z,79
2023-01-25T03:34:39.630Z,71
2023-01-25T03:35:02.110Z,63
2023-01-25T03:35:24.535Z,59
2023-01-25T03:35:59.804Z,70
2023-01-25T03:36:31.668Z,54
2023-01-25T03:37:03.726Z,65
2023-01-25T03:37:35.582Z,75
2023-01-25T03:37:58.894Z,71
2023-01-25T03:38:21.188Z,88
2023-01-25T03:38:55.639Z,51
2023-01-25T03:39:27.507Z,67
2023-01-25T03:39:59.690Z,72
2023-01-25T03:40:31.967Z,88
2023-01-25T03:41:03.627Z,66
2023-01-25T03:41:35.770Z,72
2023-01-25T03:41:59.398Z,76
2023-01-25T03:42:21.496Z,118
2023-01-25T03:42:55.659Z,98
2023-01-25T03:43:27.546Z,127
2023-01-25T03:44:02.063Z,172
2023-01-25T03:44:31.591Z,195
2023-01-25T03:44:57.924Z,158
2023-01-25T03:45:33.274Z,149
2023-01-25T03:46:04.295Z,135
2023-01-25T03:46:39.860Z,160
2023-01-25T03:47:02.593Z,180
2023-01-25T03:47:24.876Z,65
2023-01-25T03:48:00.298Z,51
2023-01-25T03:48:36.049Z,293
2023-01-25T03:49:04.920Z,306
2023-01-25T03:49:35.760Z,314
2023-01-25T03:50:00.646Z,315
2023-01-25T03:50:21.385Z,204
2023-01-25T03:50:55.613Z,195
2023-01-25T03:51:28.021Z,145
2023-01-25T03:52:00.956Z,107
2023-01-25T03:52:31.692Z,135
2023-01-25T03:53:04.388Z,206
2023-01-25T03:53:35.818Z,140
2023-01-25T03:53:58.735Z,134
2023-01-25T03:54:21.394Z,124
2023-01-25T03:54:56.295Z,98
2023-01-25T03:55:28.285Z,132
2023-01-25T03:56:01.734Z,109
2023-01-25T03:56:31.963Z,130
2023-01-25T03:57:04.521Z,122
2023-01-25T03:57:35.622Z,143
2023-01-25T03:57:58.692Z,174
2023-01-25T03:58:21.538Z,175
2023-01-25T03:58:57.205Z,154
2023-01-25T03:59:28.245Z,149
2023-01-25T03:59:59.568Z,144
2023-01-25T04:00:49.493Z,152
2023-01-25T04:01:12.020Z,184
2023-01-25T04:01:32.807Z,137
2023-01-25T04:02:04.422Z,130
2023-01-25T04:02:39.807Z,92
2023-01-25T04:03:03.118Z,78
2023-01-25T04:03:25.384Z,74
2023-01-25T04:03:59.543Z,96
2023-01-25T04:04:31.925Z,94
2023-01-25T04:05:05.127Z,77
2023-01-25T04:05:35.584Z,114
2023-01-25T04:05:58.265Z,123
2023-01-25T04:06:20.591Z,123
2023-01-25T04:06:55.897Z,110
2023-01-25T04:07:27.612Z,135
2023-01-25T04:07:59.739Z,173
2023-01-25T04:08:32.094Z,175
2023-01-25T04:09:03.703Z,170
2023-01-25T04:09:35.579Z,181
2023-01-25T04:09:59.144Z,188
2023-01-25T04:10:21.477Z,127
2023-01-25T04:10:57.145Z,180
2023-01-25T04:11:27.927Z,158
2023-01-25T04:11:59.696Z,109
2023-01-25T04:12:31.517Z,120
2023-01-25T04:13:04.013Z,140
2023-01-25T04:13:35.584Z,129
2023-01-25T04:13:58.505Z,163
2023-01-25T04:14:31.823Z,157
2023-01-25T04:14:55.721Z,140
2023-01-25T04:15:27.648Z,145
2023-01-25T04:16:00.185Z,168
2023-01-25T04:16:31.970Z,182
2023-01-25T04:17:04.640Z,130
2023-01-25T04:17:35.646Z,123
2023-01-25T04:17:58.462Z,123
2023-01-25T04:18:20.852Z,125
2023-01-25T04:18:55.719Z,109
2023-01-25T04:19:27.704Z,138
2023-01-25T04:19:59.582Z,135
2023-01-25T04:20:31.736Z,124
2023-01-25T04:21:04.992Z,106
2023-01-25T04:21:36.036Z,151
2023-01-25T04:21:59.464Z,132
2023-01-25T04:22:22.249Z,139
2023-01-25T04:22:55.785Z,123
2023-01-25T04:23:27.577Z,154
2023-01-25T04:23:59.575Z,95
2023-01-25T04:24:32.058Z,128
2023-01-25T04:25:05.415Z,99
2023-01-25T04:25:37.417Z,126
2023-01-25T04:25:58.645Z,118
2023-01-25T04:26:22.729Z,147
2023-01-25T04:26:55.661Z,142
2023-01-25T04:27:27.720Z,95
2023-01-25T04:27:59.698Z,61
2023-01-25T04:28:34.091Z,78
2023-01-25T04:29:05.743Z,137
2023-01-25T04:29:41.454Z,133
2023-01-25T04:29:58.988Z,124
2023-01-25T04:30:21.452Z,126
2023-01-25T04:30:55.497Z,118
2023-01-25T04:31:27.923Z,130
2023-01-25T04:31:59.646Z,128
2023-01-25T04:32:33.289Z,147
2023-01-25T04:33:06.198Z,108
2023-01-25T04:33:35.768Z,89
2023-01-25T04:33:58.689Z,129
2023-01-25T04:34:20.936Z,105
2023-01-25T04:34:55.618Z,132
2023-01-25T04:35:27.644Z,95
2023-01-25T04:35:59.638Z,83
2023-01-25T04:36:31.694Z,106
2023-01-25T04:37:03.538Z,97
2023-01-25T04:37:35.610Z,119
2023-01-25T04:37:58.379Z,135
2023-01-25T04:38:20.728Z,131
2023-01-25T04:38:55.714Z,161
2023-01-25T04:39:27.699Z,129
2023-01-25T04:39:59.683Z,137
2023-01-25T04:40:31.521Z,130
2023-01-25T04:41:03.667Z,148
2023-01-25T04:41:35.518Z,139
2023-01-25T04:41:58.385Z,154
2023-01-25T04:42:20.790Z,147
2023-01-25T04:42:55.613Z,133
2023-01-25T04:43:27.689Z,160
2023-01-25T04:44:02.108Z,162
2023-01-25T04:44:31.553Z,162
2023-01-25T04:45:03.819Z,140
2023-01-25T04:45:35.589Z,155
2023-01-25T04:45:58.394Z,133
2023-01-25T04:46:20.682Z,134
2023-01-25T04:46:55.559Z,154
2023-01-25T04:47:27.895Z,169
2023-01-25T04:47:59.613Z,167
2023-01-25T04:48:31.679Z,146
2023-01-25T04:49:03.506Z,179
2023-01-25T04:49:35.803Z,118
2023-01-25T04:49:59.515Z,111
2023-01-25T04:50:22.137Z,119
2023-01-25T04:50:55.707Z,112
2023-01-25T04:51:27.694Z,114
2023-01-25T04:51:59.543Z,120
2023-01-25T04:52:31.513Z,123
2023-01-25T04:53:03.956Z,109
2023-01-25T04:53:36.061Z,137
2023-01-25T04:53:59.061Z,132
2023-01-25T04:54:21.342Z,142
2023-01-25T04:54:55.893Z,153
2023-01-25T04:55:27.550Z,142
2023-01-25T04:55:53.725Z,139
2023-01-25T04:56:31.906Z,135
2023-01-25T04:57:03.829Z,162
2023-01-25T04:57:35.799Z,180
2023-01-25T04:57:58.459Z,140
2023-01-25T04:58:21.232Z,111
2023-01-25T04:58:56.021Z,143
2023-01-25T04:59:29.947Z,134
2023-01-25T05:00:01.538Z,136
2023-01-25T05:00:32.863Z,118
2023-01-25T05:01:03.872Z,125
2023-01-25T05:01:36.512Z,103
2023-01-25T05:01:59.213Z,131
2023-01-25T05:02:21.596Z,151
2023-01-25T05:02:56.542Z,132
2023-01-25T05:03:27.758Z,116
2023-01-25T05:03:59.616Z,142
2023-01-25T05:04:31.798Z,139
2023-01-25T05:05:12.356Z,152
2023-01-25T05:05:34.555Z,160
2023-01-25T05:06:04.844Z,163
2023-01-25T05:06:40.002Z,141
2023-01-25T05:07:02.597Z,168
2023-01-25T05:07:26.221Z,138
2023-01-25T05:07:59.755Z,173
2023-01-25T05:08:33.150Z,154
2023-01-25T05:09:04.712Z,185
2023-01-25T05:09:36.019Z,169
2023-01-25T05:09:58.823Z,157
2023-01-25T05:10:21.334Z,109
2023-01-25T05:10:56.742Z,129
2023-01-25T05:11:28.145Z,136
2023-01-25T05:12:00.061Z,137
2023-01-25T05:12:31.592Z,155
2023-01-25T05:13:03.766Z,117
2023-01-25T05:13:35.633Z,108
2023-01-25T05:13:58.433Z,103
2023-01-25T05:14:20.920Z,128
2023-01-25T05:14:55.661Z,120
2023-01-25T05:15:28.617Z,137
2023-01-25T05:16:01.106Z,150
2023-01-25T05:16:31.698Z,133
2023-01-25T05:17:04.120Z,120
2023-01-25T05:17:35.751Z,121
2023-01-25T05:17:58.418Z,116
2023-01-25T05:18:21.512Z,101
2023-01-25T05:18:58.442Z,91
2023-01-25T05:19:29.038Z,93
2023-01-25T05:19:59.713Z,73
2023-01-25T05:20:32.183Z,90
2023-01-25T05:21:04.431Z,96
2023-01-25T05:21:36.331Z,107
2023-01-25T05:21:58.943Z,118
2023-01-25T05:22:22.319Z,122
2023-01-25T05:22:58.252Z,123
2023-01-25T05:23:29.048Z,106
2023-01-25T05:23:59.668Z,159
2023-01-25T05:24:31.735Z,145
2023-01-25T05:25:04.462Z,138
2023-01-25T05:25:37.507Z,140
2023-01-25T05:25:58.621Z,129
2023-01-25T05:26:22.843Z,123
2023-01-25T05:26:56.445Z,101
2023-01-25T05:27:27.676Z,96
2023-01-25T05:28:00.233Z,92
2023-01-25T05:28:31.723Z,131
2023-01-25T05:29:04.876Z,152
2023-01-25T05:29:37.040Z,152
2023-01-25T05:29:58.305Z,151
2023-01-25T05:30:21.815Z,149
2023-01-25T05:30:56.498Z,160
2023-01-25T05:31:29.235Z,134
2023-01-25T05:31:59.658Z,152
2023-01-25T05:32:31.764Z,149
2023-01-25T05:33:03.617Z,147
2023-01-25T05:33:35.867Z,254
2023-01-25T05:33:58.779Z,280
2023-01-25T05:34:20.996Z,258
2023-01-25T05:34:57.017Z,237
2023-01-25T05:35:28.402Z,241
2023-01-25T05:36:00.330Z,248
2023-01-25T05:36:31.746Z,229
2023-01-25T05:37:04.494Z,238
2023-01-25T05:37:35.993Z,244
2023-01-25T05:37:59.077Z,255
2023-01-25T05:38:21.908Z,245
2023-01-25T05:38:55.977Z,236
2023-01-25T05:39:28.071Z,233
2023-01-25T05:40:01.536Z,216
2023-01-25T05:40:31.794Z,210
2023-01-25T05:41:03.826Z,207
2023-01-25T05:41:36.583Z,178
2023-01-25T05:41:59.147Z,111
2023-01-25T05:42:21.618Z,73
2023-01-25T05:42:55.910Z,136
2023-01-25T05:43:27.638Z,253
2023-01-25T05:43:59.974Z,252
2023-01-25T05:44:34.241Z,251
2023-01-25T05:45:04.864Z,285
2023-01-25T05:45:36.410Z,231
2023-01-25T05:45:59.137Z,234
2023-01-25T05:46:22.039Z,243
2023-01-25T05:46:55.662Z,215
2023-01-25T05:47:27.956Z,174
2023-01-25T05:47:59.633Z,127
2023-01-25T05:48:33.739Z,132
2023-01-25T05:49:03.758Z,117
2023-01-25T05:49:36.528Z,126
2023-01-25T05:50:00.321Z,106
2023-01-25T05:50:21.719Z,122
2023-01-25T05:50:56.869Z,136
2023-01-25T05:51:27.703Z,127
2023-01-25T05:51:59.979Z,127
2023-01-25T05:52:31.880Z,133
2023-01-25T05:53:03.810Z,114
2023-01-25T05:53:35.882Z,114
2023-01-25T05:53:58.787Z,120
2023-01-25T05:54:21.303Z,93
2023-01-25T05:55:04.400Z,94
2023-01-25T05:55:26.923Z,114
2023-01-25T05:55:59.933Z,97
2023-01-25T05:56:31.621Z,119
2023-01-25T05:57:03.591Z,117
2023-01-25T05:57:35.636Z,104
2023-01-25T05:57:58.506Z,107
2023-01-25T05:58:20.878Z,87
2023-01-25T05:58:55.681Z,84
2023-01-25T05:59:27.523Z,80
2023-01-25T06:00:03.092Z,86
2023-01-25T06:00:31.791Z,103
2023-01-25T06:01:03.671Z,115
2023-01-25T06:01:36.019Z,120
2023-01-25T06:01:58.291Z,127
2023-01-25T06:02:20.735Z,129
2023-01-25T06:02:55.933Z,127
2023-01-25T06:03:27.765Z,152
2023-01-25T06:03:59.774Z,155
2023-01-25T06:04:31.610Z,164
2023-01-25T06:05:05.360Z,124
2023-01-25T06:05:35.693Z,107
2023-01-25T06:05:58.713Z,127
2023-01-25T06:06:21.126Z,128
2023-01-25T06:06:55.766Z,139
2023-01-25T06:07:27.498Z,161
2023-01-25T06:07:59.572Z,184
2023-01-25T06:08:34.132Z,126
2023-01-25T06:09:09.258Z,155
2023-01-25T06:09:32.493Z,180
2023-01-25T06:10:04.597Z,140
2023-01-25T06:10:40.201Z,165
2023-01-25T06:11:02.774Z,161
2023-01-25T06:11:25.176Z,171
2023-01-25T06:11:59.749Z,203
2023-01-25T06:12:31.863Z,168
2023-01-25T06:13:03.763Z,178
2023-01-25T06:13:35.664Z,150
2023-01-25T06:13:58.416Z,137
2023-01-25T06:14:21.220Z,164
2023-01-25T06:14:55.672Z,118
2023-01-25T06:15:28.204Z,106
2023-01-25T06:16:01.247Z,127
2023-01-25T06:16:32.383Z,124
2023-01-25T06:17:04.024Z,148
2023-01-25T06:17:35.577Z,140
2023-01-25T06:17:58.607Z,121
2023-01-25T06:18:21.081Z,173
2023-01-25T06:18:56.657Z,102
2023-01-25T06:19:27.860Z,164
2023-01-25T06:20:00.375Z,168
2023-01-25T06:20:32.451Z,165
2023-01-25T06:21:04.658Z,141
2023-01-25T06:21:36.670Z,137
2023-01-25T06:21:59.463Z,119
2023-01-25T06:22:22.458Z,147
2023-01-25T06:23:02.501Z,119
2023-01-25T06:23:24.804Z,129
2023-01-25T06:23:59.883Z,187
2023-01-25T06:24:32.031Z,158
2023-01-25T06:25:03.800Z,96
2023-01-25T06:25:38.473Z,104
2023-01-25T06:25:59.273Z,252
2023-01-25T06:26:24.088Z,247
2023-01-25T06:26:55.803Z,154
2023-01-25T06:27:27.695Z,126
2023-01-25T06:27:59.565Z,86
2023-01-25T06:28:31.591Z,119
2023-01-25T06:29:06.261Z,181
2023-01-25T06:29:35.795Z,191
2023-01-25T06:29:59.221Z,187
2023-01-25T06:30:24.453Z,269
2023-01-25T06:30:55.676Z,300
2023-01-25T06:31:28.576Z,182
2023-01-25T06:31:59.755Z,144
2023-01-25T06:32:31.554Z,131
2023-01-25T06:33:03.682Z,138
2023-01-25T06:33:35.480Z,231
2023-01-25T06:33:59.975Z,235
2023-01-25T06:34:21.792Z,268
2023-01-25T06:34:55.699Z,248
2023-01-25T06:35:28.153Z,269
2023-01-25T06:35:59.697Z,249
2023-01-25T06:36:31.759Z,223
2023-01-25T06:37:04.069Z,275
2023-01-25T06:37:36.078Z,252
2023-01-25T06:37:58.772Z,182
2023-01-25T06:38:22.407Z,176
2023-01-25T06:38:55.654Z,155
2023-01-25T06:39:27.973Z,121
2023-01-25T06:39:59.664Z,116
2023-01-25T06:40:31.717Z,110
2023-01-25T06:41:03.598Z,95
2023-01-25T06:41:35.635Z,151
2023-01-25T06:41:58.397Z,132
2023-01-25T06:42:22.955Z,154
2023-01-25T06:42:55.642Z,220
2023-01-25T06:43:27.996Z,249
2023-01-25T06:43:59.874Z,231
2023-01-25T06:44:31.834Z,253
2023-01-25T06:45:04.128Z,277
2023-01-25T06:45:35.802Z,281
2023-01-25T06:45:58.792Z,288
2023-01-25T06:46:23.559Z,254
2023-01-25T06:46:55.813Z,250
2023-01-25T06:47:27.616Z,266
2023-01-25T06:47:59.948Z,283
2023-01-25T06:48:31.542Z,293
2023-01-25T06:49:03.671Z,313
2023-01-25T06:49:35.545Z,321
2023-01-25T06:50:00.898Z,299
2023-01-25T06:50:24.269Z,176
2023-01-25T06:50:55.780Z,168
2023-01-25T06:51:27.543Z,155
2023-01-25T06:51:59.635Z,146
2023-01-25T06:52:31.759Z,101
2023-01-25T06:53:03.959Z,84
2023-01-25T06:53:35.869Z,72
2023-01-25T06:53:59.265Z,68
2023-01-25T06:54:21.123Z,69
2023-01-25T06:54:55.791Z,64
2023-01-25T06:55:27.978Z,62
2023-01-25T06:55:59.553Z,104
2023-01-25T06:56:33.096Z,120
2023-01-25T06:57:03.581Z,159
2023-01-25T06:57:35.915Z,231
2023-01-25T06:57:58.768Z,223
2023-01-25T06:58:21.171Z,263
2023-01-25T06:58:56.178Z,263
2023-01-25T06:59:27.701Z,268
2023-01-25T06:59:59.531Z,252
2023-01-25T07:00:32.249Z,261
2023-01-25T07:01:03.734Z,279
2023-01-25T07:01:37.318Z,273
2023-01-25T07:01:59.117Z,269